Norwegian Dream — C6LG5 — position and weather

sailwx.info

Track history (hours):
 
Tides and Currents Weather Stations Pressure Air Temp Water Temp Dewpoint Dewpoint Depression Visibility Wind Speed Wind Dir Waves Ship Positions

Norwegian Dream

Operator: Norwegian Cruise Line

Last reported at 2017-Mar-27 07:32 UTC. Time now 2017-Mar-28 19:48 UTC.
Position N 05°26' E 100°21'.

Type: Ship. MMSI: 308272000.

Date/timePositionNaut miles runAvg speedWind from/ knotsBaromVisibWave heightAir tempDewpointWater temp
2017-Mar-27 07:32N 05°26' E 100°21'18713.8
2017-Mar-26 18:00N 02°30' E 101°24'7516.9 090 / 81016.0 5.4 27.0 29.0
2017-Mar-26 13:33N 01°52' E 102°28'1515.1
2017-Mar-26 12:33N 01°46' E 102°42'6315.4
2017-Mar-26 08:29N 01°12' E 103°35'1111.3
2017-Mar-26 07:33N 01°16' E 103°45'4 2.1
2017-Mar-26 05:30N 01°16' E 103°49'0 0.0
2017-Mar-26 03:15N 01°16' E 103°49'0 0.0
2017-Mar-26 02:28N 01°16' E 103°49'0 0.0
2017-Mar-26 01:30N 01°16' E 103°49'3 3.5
2017-Mar-26 00:32N 01°12' E 103°50'10 9.7
2017-Mar-25 23:33N 01°05' E 103°43'8 8.4
2017-Mar-25 22:33N 01°05' E 103°35'10 8.7
2017-Mar-25 21:26N 01°10' E 103°26'6 7.1
2017-Mar-25 20:31N 01°14' E 103°21'18 7.3
2017-Mar-25 18:00N 01°24' E 103°06'41 6.2 360 / 81016.0 5.4 27.0 29.0
2017-Mar-25 11:25N 01°45' E 102°30'9 8.9
2017-Mar-25 10:25N 01°48' E 102°22'4 0.5
2017-Mar-25 02:00N 01°48' E 102°18'914.7 010 / 81015.0 5.4 27.025.730.0
2017-Mar-25 01:24N 01°51' E 102°26'6 7.0
2017-Mar-25 00:30N 01°48' E 102°32'7 5.8
2017-Mar-24 23:22N 01°45' E 102°38'5 5.7
2017-Mar-24 22:33N 01°43' E 102°42'6 5.9
2017-Mar-24 21:32N 01°41' E 102°48'25 7.0
2017-Mar-24 18:00N 01°24' E 103°06'10 5.4 050 / 61015.0 5.4 27.0 29.0
2017-Mar-24 16:14N 01°21' E 103°15'25 9.3
2017-Mar-24 13:33N 01°11' E 103°38'1110.7
2017-Mar-24 12:33N 01°11' E 103°49'5 2.2
2017-Mar-24 10:28N 01°16' E 103°49'0 0.0
2017-Mar-24 05:31N 01°16' E 103°49'0 0.0
2017-Mar-24 04:28N 01°16' E 103°49'0 0.0
2017-Mar-24 03:31N 01°16' E 103°49'4 3.8
2017-Mar-24 02:33N 01°12' E 103°50'1010.1
2017-Mar-24 01:34N 01°05' E 103°43'1111.4
2017-Mar-24 00:33N 01°07' E 103°32'7915.7
2017-Mar-23 19:29N 01°48' E 102°23'93 5.3
2017-Mar-23 02:00N 02°48' E 101°12'10113.6 010 / 61015.0 5.4 28.026.730.0
2017-Mar-22 18:31N 01°48' E 102°33'1019.5
2017-Mar-22 18:00N 01°42' E 102°42'4 9.4 340 / 61015.0 27.0 28.0
2017-Mar-22 17:33N 01°41' E 102°46'6015.1
2017-Mar-22 13:33N 01°11' E 103°38'10 9.8
2017-Mar-22 12:33N 01°13' E 103°48'3 2.8
2017-Mar-22 11:29N 01°16' E 103°49'0 0.0
2017-Mar-22 10:26N 01°16' E 103°49'0 0.0
2017-Mar-22 09:30N 01°16' E 103°49'0 0.0
2017-Mar-22 05:26N 01°16' E 103°49'3 3.5
2017-Mar-22 04:34N 01°13' E 103°49'10 9.6
2017-Mar-22 03:34N 01°05' E 103°43'1110.6
2017-Mar-22 02:33N 01°07' E 103°32'4814.2
2017-Mar-21 23:12N 01°34' E 102°53'1116.5
2017-Mar-21 22:32N 01°39' E 102°43'1716.6
2017-Mar-21 21:29N 01°46' E 102°27'5515.9
2017-Mar-21 18:00N 02°18' E 101°42'202 8.4 020 / 101016.0 27.0 28.0
2017-Mar-20 18:00N 05°12' E 100°00'253 8.6 360 / 141016.0 5.4 26.0 28.0
2017-Mar-19 12:33N 01°49' E 102°32'7316.9
2017-Mar-19 08:16N 01°12' E 103°34'912.6
2017-Mar-19 07:33N 01°15' E 103°43'6 6.0
2017-Mar-19 06:31N 01°16' E 103°49'0 0.0
2017-Mar-19 05:07N 01°16' E 103°49'0 0.0
2017-Mar-19 02:25N 01°16' E 103°49'0 0.0
2017-Mar-19 01:33N 01°16' E 103°49'4 3.9
2017-Mar-19 00:33N 01°12' E 103°50'10 9.9
2017-Mar-18 23:33N 01°05' E 103°43'7 6.5
2017-Mar-18 22:32N 01°04' E 103°37'7 7.0
2017-Mar-18 21:33N 01°07' E 103°31'8 6.8
2017-Mar-18 20:24N 01°11' E 103°24'19 7.9
2017-Mar-18 18:00N 01°18' E 103°06'23 6.7 070 / 61017.0 5.4 26.0 29.0
2017-Mar-18 14:32N 01°35' E 102°50'22 7.3
2017-Mar-18 11:33N 01°45' E 102°31'7 6.5
2017-Mar-18 10:33N 01°47' E 102°25'5 0.6
2017-Mar-18 01:05N 01°53' E 102°25'4 7.1
2017-Mar-18 00:33N 01°51' E 102°28'11 7.4
2017-Mar-17 23:07N 01°46' E 102°38'4 8.0
2017-Mar-17 22:33N 01°44' E 102°42'32 6.9
2017-Mar-17 18:00N 01°24' E 103°06'30 8.3 050 / 61016.0 5.4 26.0 29.0
2017-Mar-17 14:24N 01°12' E 103°33'1012.1
2017-Mar-17 13:33N 01°09' E 103°43'7 7.3
2017-Mar-17 12:33N 01°15' E 103°47'2 1.6
2017-Mar-17 11:06N 01°16' E 103°49'  
Track history (hours):
 
Tides and Currents Weather Stations Pressure Air Temp Water Temp Dewpoint Dewpoint Depression Visibility Wind Speed Wind Dir Waves Ship Positions

Norwegian Dream

Operator: Norwegian Cruise Line

Last reported at 2017-Mar-27 07:32 UTC. Time now 2017-Mar-28 19:48 UTC.
Position N 05°26' E 100°21'.

Type: Ship. MMSI: 308272000.

Date/timePositionNaut miles runAvg speedWind from/ knotsBaromVisibWave heightAir tempDewpointWater temp
2017-Mar-27 07:32N 05°26' E 100°21'18713.8
2017-Mar-26 18:00N 02°30' E 101°24'7516.9 090 / 81016.0 5.4 27.0 29.0
2017-Mar-26 13:33N 01°52' E 102°28'1515.1
2017-Mar-26 12:33N 01°46' E 102°42'6315.4
2017-Mar-26 08:29N 01°12' E 103°35'1111.3
2017-Mar-26 07:33N 01°16' E 103°45'4 2.1
2017-Mar-26 05:30N 01°16' E 103°49'0 0.0
2017-Mar-26 03:15N 01°16' E 103°49'0 0.0
2017-Mar-26 02:28N 01°16' E 103°49'0 0.0
2017-Mar-26 01:30N 01°16' E 103°49'3 3.5
2017-Mar-26 00:32N 01°12' E 103°50'10 9.7
2017-Mar-25 23:33N 01°05' E 103°43'8 8.4
2017-Mar-25 22:33N 01°05' E 103°35'10 8.7
2017-Mar-25 21:26N 01°10' E 103°26'6 7.1
2017-Mar-25 20:31N 01°14' E 103°21'18 7.3
2017-Mar-25 18:00N 01°24' E 103°06'41 6.2 360 / 81016.0 5.4 27.0 29.0
2017-Mar-25 11:25N 01°45' E 102°30'9 8.9
2017-Mar-25 10:25N 01°48' E 102°22'4 0.5
2017-Mar-25 02:00N 01°48' E 102°18'914.7 010 / 81015.0 5.4 27.025.730.0
2017-Mar-25 01:24N 01°51' E 102°26'6 7.0
2017-Mar-25 00:30N 01°48' E 102°32'7 5.8
2017-Mar-24 23:22N 01°45' E 102°38'5 5.7
2017-Mar-24 22:33N 01°43' E 102°42'6 5.9
2017-Mar-24 21:32N 01°41' E 102°48'25 7.0
2017-Mar-24 18:00N 01°24' E 103°06'10 5.4 050 / 61015.0 5.4 27.0 29.0
2017-Mar-24 16:14N 01°21' E 103°15'25 9.3
2017-Mar-24 13:33N 01°11' E 103°38'1110.7
2017-Mar-24 12:33N 01°11' E 103°49'5 2.2
2017-Mar-24 10:28N 01°16' E 103°49'0 0.0
2017-Mar-24 05:31N 01°16' E 103°49'0 0.0
2017-Mar-24 04:28N 01°16' E 103°49'0 0.0
2017-Mar-24 03:31N 01°16' E 103°49'4 3.8
2017-Mar-24 02:33N 01°12' E 103°50'1010.1
2017-Mar-24 01:34N 01°05' E 103°43'1111.4
2017-Mar-24 00:33N 01°07' E 103°32'7915.7
2017-Mar-23 19:29N 01°48' E 102°23'93 5.3
2017-Mar-23 02:00N 02°48' E 101°12'10113.6 010 / 61015.0 5.4 28.026.730.0
2017-Mar-22 18:31N 01°48' E 102°33'1019.5
2017-Mar-22 18:00N 01°42' E 102°42'4 9.4 340 / 61015.0 27.0 28.0
2017-Mar-22 17:33N 01°41' E 102°46'6015.1
2017-Mar-22 13:33N 01°11' E 103°38'10 9.8
2017-Mar-22 12:33N 01°13' E 103°48'3 2.8
2017-Mar-22 11:29N 01°16' E 103°49'0 0.0
2017-Mar-22 10:26N 01°16' E 103°49'0 0.0
2017-Mar-22 09:30N 01°16' E 103°49'0 0.0
2017-Mar-22 05:26N 01°16' E 103°49'3 3.5
2017-Mar-22 04:34N 01°13' E 103°49'10 9.6
2017-Mar-22 03:34N 01°05' E 103°43'1110.6
2017-Mar-22 02:33N 01°07' E 103°32'4814.2
2017-Mar-21 23:12N 01°34' E 102°53'1116.5
2017-Mar-21 22:32N 01°39' E 102°43'1716.6
2017-Mar-21 21:29N 01°46' E 102°27'5515.9
2017-Mar-21 18:00N 02°18' E 101°42'202 8.4 020 / 101016.0 27.0 28.0
2017-Mar-20 18:00N 05°12' E 100°00'253 8.6 360 / 141016.0 5.4 26.0 28.0
2017-Mar-19 12:33N 01°49' E 102°32'7316.9
2017-Mar-19 08:16N 01°12' E 103°34'912.6
2017-Mar-19 07:33N 01°15' E 103°43'6 6.0
2017-Mar-19 06:31N 01°16' E 103°49'0 0.0
2017-Mar-19 05:07N 01°16' E 103°49'0 0.0
2017-Mar-19 02:25N 01°16' E 103°49'0 0.0
2017-Mar-19 01:33N 01°16' E 103°49'4 3.9
2017-Mar-19 00:33N 01°12' E 103°50'10 9.9
2017-Mar-18 23:33N 01°05' E 103°43'7 6.5
2017-Mar-18 22:32N 01°04' E 103°37'7 7.0
2017-Mar-18 21:33N 01°07' E 103°31'8 6.8
2017-Mar-18 20:24N 01°11' E 103°24'19 7.9
2017-Mar-18 18:00N 01°18' E 103°06'23 6.7 070 / 61017.0 5.4 26.0 29.0
2017-Mar-18 14:32N 01°35' E 102°50'22 7.3
2017-Mar-18 11:33N 01°45' E 102°31'7 6.5
2017-Mar-18 10:33N 01°47' E 102°25'5 0.6
2017-Mar-18 01:05N 01°53' E 102°25'4 7.1
2017-Mar-18 00:33N 01°51' E 102°28'11 7.4
2017-Mar-17 23:07N 01°46' E 102°38'4 8.0
2017-Mar-17 22:33N 01°44' E 102°42'32 6.9
2017-Mar-17 18:00N 01°24' E 103°06'30 8.3 050 / 61016.0 5.4 26.0 29.0
2017-Mar-17 14:24N 01°12' E 103°33'1012.1
2017-Mar-17 13:33N 01°09' E 103°43'7 7.3
2017-Mar-17 12:33N 01°15' E 103°47'2 1.6
2017-Mar-17 11:06N 01°16' E 103°49'  

Dump ship's entire track history